sensor_id;sensor_type;location;lat;lon;timestamp;pressure;altitude;pressure_sealevel;temperature;humidity
11413;BME280;5762;43.256;26.960;2023-01-26T06:41:42;100406.17;;;0.83;100.00
11413;BME280;5762;43.256;26.960;2023-01-26T06:44:12;100404.05;;;0.91;100.00
11413;BME280;5762;43.256;26.960;2023-01-26T06:46:41;100389.27;;;0.95;100.00
11413;BME280;5762;43.256;26.960;2023-01-26T06:49:09;100397.09;;;0.90;100.00
11413;BME280;5762;43.256;26.960;2023-01-26T06:51:40;100411.86;;;1.02;100.00
11413;BME280;5762;43.256;26.960;2023-01-26T06:54:10;100398.45;;;1.09;100.00
11413;BME280;5762;43.256;26.960;2023-01-26T06:56:39;100399.18;;;1.07;100.00
11413;BME280;5762;43.256;26.960;2023-01-26T06:59:08;100399.13;;;1.13;100.00
11413;BME280;5762;43.256;26.960;2023-01-26T07:01:43;100403.28;;;1.18;100.00
11413;BME280;5762;43.256;26.960;2023-01-26T07:04:12;100398.98;;;1.17;100.00
11413;BME280;5762;43.256;26.960;2023-01-26T07:06:41;100399.05;;;1.11;100.00
11413;BME280;5762;43.256;26.960;2023-01-26T07:09:09;100395.92;;;1.05;100.00
11413;BME280;5762;43.256;26.960;2023-01-26T07:11:38;100387.13;;;1.13;100.00
11413;BME280;5762;43.256;26.960;2023-01-26T07:14:06;100401.55;;;1.06;100.00
11413;BME280;5762;43.256;26.960;2023-01-26T07:16:35;100402.28;;;0.94;100.00
11413;BME280;5762;43.256;26.960;2023-01-26T07:19:04;100393.20;;;1.02;100.00
11413;BME280;5762;43.256;26.960;2023-01-26T07:21:33;100394.96;;;1.08;100.00
11413;BME280;5762;43.256;26.960;2023-01-26T07:24:03;100396.08;;;1.10;100.00
11413;BME280;5762;43.256;26.960;2023-01-26T07:26:31;100388.59;;;1.09;100.00
11413;BME280;5762;43.256;26.960;2023-01-26T07:29:00;100392.17;;;1.03;100.00
11413;BME280;5762;43.256;26.960;2023-01-26T07:31:29;100382.09;;;1.14;100.00
11413;BME280;5762;43.256;26.960;2023-01-26T07:33:58;100377.66;;;1.17;100.00
11413;BME280;5762;43.256;26.960;2023-01-26T07:36:27;100378.97;;;1.08;100.00
11413;BME280;5762;43.256;26.960;2023-01-26T07:39:00;100374.98;;;0.99;100.00
11413;BME280;5762;43.256;26.960;2023-01-26T07:41:25;100376.60;;;1.09;100.00
11413;BME280;5762;43.256;26.960;2023-01-26T07:43:54;100367.65;;;1.13;100.00
11413;BME280;5762;43.256;26.960;2023-01-26T07:46:22;100375.19;;;1.07;100.00
11413;BME280;5762;43.256;26.960;2023-01-26T07:48:51;100375.34;;;1.12;100.00
11413;BME280;5762;43.256;26.960;2023-01-26T07:51:21;100376.46;;;1.13;100.00
11413;BME280;5762;43.256;26.960;2023-01-26T07:53:49;100380.30;;;1.08;100.00
11413;BME280;5762;43.256;26.960;2023-01-26T07:56:18;100374.02;;;1.12;100.00
11413;BME280;5762;43.256;26.960;2023-01-26T07:58:51;100357.44;;;1.00;100.00
11413;BME280;5762;43.256;26.960;2023-01-26T08:01:20;100373.86;;;1.07;100.00
11413;BME280;5762;43.256;26.960;2023-01-26T08:03:49;100371.87;;;1.11;100.00
11413;BME280;5762;43.256;26.960;2023-01-26T08:06:20;100370.61;;;1.14;100.00
11413;BME280;5762;43.256;26.960;2023-01-26T08:08:50;100365.95;;;1.18;100.00
11413;BME280;5762;43.256;26.960;2023-01-26T08:11:20;100358.41;;;1.24;100.00
11413;BME280;5762;43.256;26.960;2023-01-26T08:13:48;100358.56;;;1.29;100.00
11413;BME280;5762;43.256;26.960;2023-01-26T08:16:20;100361.23;;;1.29;100.00
11413;BME280;5762;43.256;26.960;2023-01-26T08:18:49;100362.34;;;1.31;100.00
11413;BME280;5762;43.256;26.960;2023-01-26T08:21:18;100367.53;;;1.35;100.00
11413;BME280;5762;43.256;26.960;2023-01-26T08:23:50;100368.54;;;1.43;100.00
11413;BME280;5762;43.256;26.960;2023-01-26T08:26:18;100368.62;;;1.46;100.00
11413;BME280;5762;43.256;26.960;2023-01-26T08:28:47;100374.92;;;1.51;100.00
11413;BME280;5762;43.256;26.960;2023-01-26T08:31:17;100369.80;;;1.50;100.00
11413;BME280;5762;43.256;26.960;2023-01-26T08:33:47;100366.33;;;1.49;100.00
11413;BME280;5762;43.256;26.960;2023-01-26T08:36:17;100361.66;;;1.54;100.00
11413;BME280;5762;43.256;26.960;2023-01-26T08:38:46;100360.17;;;1.67;100.00
11413;BME280;5762;43.256;26.960;2023-01-26T08:41:15;100351.72;;;1.70;100.00
11413;BME280;5762;43.256;26.960;2023-01-26T08:43:43;100355.58;;;1.65;100.00
11413;BME280;5762;43.256;26.960;2023-01-26T08:46:12;100355.42;;;1.69;100.00
11413;BME280;5762;43.256;26.960;2023-01-26T08:48:41;100350.02;;;1.66;100.00
11413;BME280;5762;43.256;26.960;2023-01-26T08:51:10;100341.49;;;1.67;100.00
11413;BME280;5762;43.256;26.960;2023-01-26T08:53:38;100332.11;;;1.76;100.00
11413;BME280;5762;43.256;26.960;2023-01-26T08:56:08;100337.44;;;1.85;100.00
11413;BME280;5762;43.256;26.960;2023-01-26T08:58:38;100331.04;;;1.95;100.00
11413;BME280;5762;43.256;26.960;2023-01-26T09:03:24;100326.83;;;1.88;100.00
11413;BME280;5762;43.256;26.960;2023-01-26T09:05:53;100328.22;;;1.99;100.00
11413;BME280;5762;43.256;26.960;2023-01-26T09:08:22;100316.97;;;1.88;100.00
11413;BME280;5762;43.256;26.960;2023-01-26T09:10:51;100305.48;;;1.58;100.00
11413;BME280;5762;43.256;26.960;2023-01-26T09:13:20;100300.01;;;1.53;100.00
11413;BME280;5762;43.256;26.960;2023-01-26T09:15:49;100310.23;;;1.56;100.00
11413;BME280;5762;43.256;26.960;2023-01-26T09:18:18;100303.78;;;1.54;100.00
11413;BME280;5762;43.256;26.960;2023-01-26T09:20:47;100309.32;;;1.71;100.00
11413;BME280;5762;43.256;26.960;2023-01-26T09:23:15;100298.17;;;1.74;100.00
11413;BME280;5762;43.256;26.960;2023-01-26T09:25:44;100294.89;;;1.81;100.00
11413;BME280;5762;43.256;26.960;2023-01-26T09:28:14;100286.59;;;1.80;100.00
11413;BME280;5762;43.256;26.960;2023-01-26T09:30:43;100283.63;;;1.79;100.00
11413;BME280;5762;43.256;26.960;2023-01-26T09:33:11;100276.64;;;1.87;100.00
11413;BME280;5762;43.256;26.960;2023-01-26T09:35:40;100274.41;;;1.93;100.00
11413;BME280;5762;43.256;26.960;2023-01-26T09:38:09;100278.11;;;1.92;100.00
11413;BME280;5762;43.256;26.960;2023-01-26T09:40:44;100268.02;;;1.94;100.00
11413;BME280;5762;43.256;26.960;2023-01-26T09:43:22;100262.30;;;2.00;100.00
11413;BME280;5762;43.256;26.960;2023-01-26T09:56:00;100231.79;;;2.08;100.00
11413;BME280;5762;43.256;26.960;2023-01-26T09:58:36;100223.55;;;2.32;100.00
11413;BME280;5762;43.256;26.960;2023-01-26T10:01:03;100218.27;;;2.23;100.00
11413;BME280;5762;43.256;26.960;2023-01-26T10:03:40;100222.49;;;2.22;100.00
11413;BME280;5762;43.256;26.960;2023-01-26T10:06:12;100224.31;;;2.42;100.00
11413;BME280;5762;43.256;26.960;2023-01-26T10:08:36;100220.28;;;2.19;100.00
11413;BME280;5762;43.256;26.960;2023-01-26T10:11:09;100223.19;;;2.17;100.00
11413;BME280;5762;43.256;26.960;2023-01-26T10:13:35;100225.33;;;2.53;100.00
11413;BME280;5762;43.256;26.960;2023-01-26T10:16:09;100222.72;;;2.55;100.00
11413;BME280;5762;43.256;26.960;2023-01-26T10:18:49;100224.45;;;2.73;100.00
11413;BME280;5762;43.256;26.960;2023-01-26T10:21:03;100221.86;;;2.78;100.00
11413;BME280;5762;43.256;26.960;2023-01-26T10:23:33;100219.54;;;2.82;100.00
11413;BME280;5762;43.256;26.960;2023-01-26T10:26:11;100215.81;;;2.83;100.00
11413;BME280;5762;43.256;26.960;2023-01-26T10:28:43;100212.95;;;2.98;100.00
11413;BME280;5762;43.256;26.960;2023-01-26T10:31:17;100214.34;;;3.01;100.00
11413;BME280;5762;43.256;26.960;2023-01-26T10:33:49;100205.89;;;3.07;100.00
11413;BME280;5762;43.256;26.960;2023-01-26T10:36:16;100205.12;;;3.23;100.00
11413;BME280;5762;43.256;26.960;2023-01-26T10:38:47;100200.09;;;3.12;100.00
11413;BME280;5762;43.256;26.960;2023-01-26T10:41:20;100197.34;;;3.21;100.00
11413;BME280;5762;43.256;26.960;2023-01-26T10:46:30;100179.26;;;3.12;100.00
11413;BME280;5762;43.256;26.960;2023-01-26T10:49:03;100170.98;;;2.99;100.00
11413;BME280;5762;43.256;26.960;2023-01-26T10:51:31;100161.23;;;2.93;100.00
11413;BME280;5762;43.256;26.960;2023-01-26T10:54:20;100157.53;;;3.08;100.00
11413;BME280;5762;43.256;26.960;2023-01-26T10:56:33;100150.15;;;3.15;100.00
11413;BME280;5762;43.256;26.960;2023-01-26T10:59:02;100145.39;;;3.03;100.00
11413;BME280;5762;43.256;26.960;2023-01-26T11:01:32;100147.39;;;2.96;100.00
11413;BME280;5762;43.256;26.960;2023-01-26T11:04:05;100138.35;;;3.14;100.00
11413;BME280;5762;43.256;26.960;2023-01-26T11:06:34;100124.82;;;3.03;100.00
11413;BME280;5762;43.256;26.960;2023-01-26T11:09:20;100120.13;;;2.96;100.00
11413;BME280;5762;43.256;26.960;2023-01-26T11:11:58;100106.41;;;3.21;100.00
11413;BME280;5762;43.256;26.960;2023-01-26T11:14:27;100106.41;;;3.21;100.00
11413;BME280;5762;43.256;26.960;2023-01-26T11:16:57;100103.39;;;3.32;100.00
11413;BME280;5762;43.256;26.960;2023-01-26T11:21:57;100094.80;;;3.30;100.00
11413;BME280;5762;43.256;26.960;2023-01-26T11:24:25;100094.27;;;3.30;100.00
11413;BME280;5762;43.256;26.960;2023-01-26T11:32:13;100080.73;;;3.54;100.00
11413;BME280;5762;43.256;26.960;2023-01-26T11:34:46;100078.50;;;3.65;100.00
11413;BME280;5762;43.256;26.960;2023-01-26T11:40:01;100072.26;;;3.59;100.00
11413;BME280;5762;43.256;26.960;2023-01-26T11:47:46;100059.19;;;3.44;100.00
11413;BME280;5762;43.256;26.960;2023-01-26T11:57:52;100042.72;;;3.35;100.00
11413;BME280;5762;43.256;26.960;2023-01-26T12:02:58;100041.86;;;3.32;100.00
11413;BME280;5762;43.256;26.960;2023-01-26T12:05:29;100038.27;;;3.41;100.00
11413;BME280;5762;43.256;26.960;2023-01-26T12:08:09;100031.38;;;3.45;100.00
11413;BME280;5762;43.256;26.960;2023-01-26T12:13:18;100023.78;;;3.22;100.00
11413;BME280;5762;43.256;26.960;2023-01-26T12:15:43;100017.30;;;3.18;100.00
11413;BME280;5762;43.256;26.960;2023-01-26T12:18:14;100020.54;;;3.20;100.00
11413;BME280;5762;43.256;26.960;2023-01-26T12:20:48;100015.47;;;3.21;100.00
11413;BME280;5762;43.256;26.960;2023-01-26T12:25:57;100013.70;;;3.27;100.00
11413;BME280;5762;43.256;26.960;2023-01-26T12:28:30;99995.26;;;3.28;100.00
11413;BME280;5762;43.256;26.960;2023-01-26T12:31:19;99992.78;;;3.41;100.00
11413;BME280;5762;43.256;26.960;2023-01-26T12:33:47;99992.30;;;3.44;100.00
11413;BME280;5762;43.256;26.960;2023-01-26T12:39:10;99987.84;;;3.32;100.00
11413;BME280;5762;43.256;26.960;2023-01-26T12:44:27;99981.52;;;3.22;100.00
11413;BME280;5762;43.256;26.960;2023-01-26T12:46:56;99967.86;;;3.21;100.00
11413;BME280;5762;43.256;26.960;2023-01-26T12:49:26;99958.50;;;3.38;100.00
11413;BME280;5762;43.256;26.960;2023-01-26T12:51:54;99955.54;;;3.36;100.00
11413;BME280;5762;43.256;26.960;2023-01-26T12:54:30;99753.00;;;2.16;100.00
11413;BME280;5762;43.256;26.960;2023-01-26T12:56:53;99951.28;;;3.38;100.00
11413;BME280;5762;43.256;26.960;2023-01-26T12:59:27;99953.27;;;3.28;100.00
11413;BME280;5762;43.256;26.960;2023-01-26T13:01:56;99953.71;;;3.40;100.00
11413;BME280;5762;43.256;26.960;2023-01-26T13:04:24;99957.80;;;3.45;100.00
11413;BME280;5762;43.256;26.960;2023-01-26T13:07:03;99951.69;;;3.49;100.00
11413;BME280;5762;43.256;26.960;2023-01-26T13:09:32;99952.01;;;3.53;100.00
11413;BME280;5762;43.256;26.960;2023-01-26T13:12:00;99954.72;;;3.55;100.00
11413;BME280;5762;43.256;26.960;2023-01-26T13:14:34;99965.04;;;3.66;100.00
11413;BME280;5762;43.256;26.960;2023-01-26T13:24:48;99956.42;;;3.83;100.00
11413;BME280;5762;43.256;26.960;2023-01-26T13:27:31;99947.67;;;3.90;100.00
11413;BME280;5762;43.256;26.960;2023-01-26T13:30:01;99945.50;;;3.87;100.00
11413;BME280;5762;43.256;26.960;2023-01-26T13:35:00;99948.34;;;4.00;100.00
11413;BME280;5762;43.256;26.960;2023-01-26T13:37:33;99944.91;;;4.04;100.00
11413;BME280;5762;43.256;26.960;2023-01-26T13:40:05;99953.85;;;4.13;100.00
11413;BME280;5762;43.256;26.960;2023-01-26T13:42:51;99965.41;;;4.18;100.00
11413;BME280;5762;43.256;26.960;2023-01-26T13:45:26;99962.02;;;4.25;100.00
11413;BME280;5762;43.256;26.960;2023-01-26T13:47:50;99958.05;;;4.30;100.00
11413;BME280;5762;43.256;26.960;2023-01-26T13:52:52;99953.59;;;4.38;100.00
11413;BME280;5762;43.256;26.960;2023-01-26T13:55:30;99958.73;;;4.43;100.00
11413;BME280;5762;43.256;26.960;2023-01-26T13:58:16;99951.86;;;4.54;100.00
11413;BME280;5762;43.256;26.960;2023-01-26T14:00:56;99946.30;;;4.61;100.00
11413;BME280;5762;43.256;26.960;2023-01-26T14:03:21;99939.02;;;4.56;100.00
11413;BME280;5762;43.256;26.960;2023-01-26T14:05:50;99932.36;;;4.61;100.00
11413;BME280;5762;43.256;26.960;2023-01-26T14:08:15;99931.15;;;4.74;100.00
11413;BME280;5762;43.256;26.960;2023-01-26T14:10:45;99928.83;;;4.88;100.00
11413;BME280;5762;43.256;26.960;2023-01-26T14:13:27;99934.00;;;4.97;100.00
11413;BME280;5762;43.256;26.960;2023-01-26T14:15:56;99931.16;;;5.09;100.00
11413;BME280;5762;43.256;26.960;2023-01-26T14:18:27;99932.00;;;5.14;100.00
11413;BME280;5762;43.256;26.960;2023-01-26T14:23:37;99924.52;;;5.21;100.00
11413;BME280;5762;43.256;26.960;2023-01-26T14:26:00;99925.91;;;5.29;100.00
11413;BME280;5762;43.256;26.960;2023-01-26T14:28:29;99920.80;;;5.27;100.00
11413;BME280;5762;43.256;26.960;2023-01-26T14:31:01;99924.27;;;5.25;100.00
11413;BME280;5762;43.256;26.960;2023-01-26T14:33:27;99917.80;;;5.21;100.00
11413;BME280;5762;43.256;26.960;2023-01-26T14:36:00;99909.53;;;5.28;100.00
11413;BME280;5762;43.256;26.960;2023-01-26T14:38:30;99914.09;;;5.27;100.00
11413;BME280;5762;43.256;26.960;2023-01-26T14:40:58;99902.05;;;5.32;100.00
11413;BME280;5762;43.256;26.960;2023-01-26T14:43:27;99903.19;;;5.42;100.00
11413;BME280;5762;43.256;26.960;2023-01-26T14:46:00;99899.71;;;5.44;100.00
11413;BME280;5762;43.256;26.960;2023-01-26T14:48:30;99901.83;;;5.39;100.00
11413;BME280;5762;43.256;26.960;2023-01-26T14:50:58;99895.44;;;5.48;100.00
11413;BME280;5762;43.256;26.960;2023-01-26T14:53:27;99893.73;;;5.31;100.00
11413;BME280;5762;43.256;26.960;2023-01-26T14:55:56;99889.77;;;5.42;100.00
11413;BME280;5762;43.256;26.960;2023-01-26T14:58:29;99889.28;;;5.50;100.00
11413;BME280;5762;43.256;26.960;2023-01-26T15:00:59;99880.94;;;5.46;100.00
11413;BME280;5762;43.256;26.960;2023-01-26T15:03:28;99877.20;;;5.50;100.00
11413;BME280;5762;43.256;26.960;2023-01-26T15:08:50;99876.66;;;5.55;100.00
11413;BME280;5762;43.256;26.960;2023-01-26T15:11:11;99873.98;;;5.50;100.00
11413;BME280;5762;43.256;26.960;2023-01-26T15:13:57;99875.03;;;5.47;100.00
11413;BME280;5762;43.256;26.960;2023-01-26T15:16:25;99871.00;;;5.44;100.00
11413;BME280;5762;43.256;26.960;2023-01-26T15:19:01;99873.98;;;5.58;100.00
11413;BME280;5762;43.256;26.960;2023-01-26T15:21:35;99877.22;;;5.60;100.00
11413;BME280;5762;43.256;26.960;2023-01-26T15:23:59;99869.98;;;5.60;100.00
11413;BME280;5762;43.256;26.960;2023-01-26T15:26:29;99859.27;;;5.65;100.00
11413;BME280;5762;43.256;26.960;2023-01-26T15:28:58;99857.06;;;5.50;100.00
11413;BME280;5762;43.256;26.960;2023-01-26T15:31:32;99849.61;;;5.67;100.00
11413;BME280;5762;43.256;26.960;2023-01-26T15:34:00;99843.46;;;5.74;100.00
11413;BME280;5762;43.256;26.960;2023-01-26T15:36:33;99835.16;;;5.81;100.00
11413;BME280;5762;43.256;26.960;2023-01-26T15:39:12;99829.00;;;5.85;100.00
11413;BME280;5762;43.256;26.960;2023-01-26T15:41:41;99823.06;;;5.78;100.00
11413;BME280;5762;43.256;26.960;2023-01-26T15:44:16;99817.16;;;5.76;100.00
11413;BME280;5762;43.256;26.960;2023-01-26T15:46:45;99809.41;;;5.92;100.00
11413;BME280;5762;43.256;26.960;2023-01-26T15:49:13;99808.86;;;5.88;100.00
11413;BME280;5762;43.256;26.960;2023-01-26T15:51:42;99810.73;;;5.85;100.00
11413;BME280;5762;43.256;26.960;2023-01-26T15:54:10;99810.70;;;5.77;100.00
11413;BME280;5762;43.256;26.960;2023-01-26T15:56:39;99811.52;;;5.78;100.00
11413;BME280;5762;43.256;26.960;2023-01-26T15:59:08;99813.70;;;5.91;100.00
11413;BME280;5762;43.256;26.960;2023-01-26T16:01:37;99805.68;;;6.03;100.00
11413;BME280;5762;43.256;26.960;2023-01-26T16:04:09;99801.39;;;6.10;100.00
11413;BME280;5762;43.256;26.960;2023-01-26T16:06:36;99795.74;;;6.04;100.00
11413;BME280;5762;43.256;26.960;2023-01-26T16:09:05;99790.38;;;6.09;100.00
11413;BME280;5762;43.256;26.960;2023-01-26T16:11:34;99791.72;;;6.09;100.00
11413;BME280;5762;43.256;26.960;2023-01-26T16:14:02;99782.33;;;6.12;100.00
11413;BME280;5762;43.256;26.960;2023-01-26T16:16:32;99775.34;;;6.13;100.00
11413;BME280;5762;43.256;26.960;2023-01-26T16:19:01;99771.05;;;6.17;100.00
11413;BME280;5762;43.256;26.960;2023-01-26T16:21:32;99771.02;;;6.25;100.00
11413;BME280;5762;43.256;26.960;2023-01-26T16:24:00;99774.01;;;6.21;100.00
11413;BME280;5762;43.256;26.960;2023-01-26T16:26:28;99768.09;;;6.19;100.00
11413;BME280;5762;43.256;26.960;2023-01-26T16:28:57;99767.27;;;6.26;100.00
11413;BME280;5762;43.256;26.960;2023-01-26T16:31:27;99766.48;;;6.23;100.00
11413;BME280;5762;43.256;26.960;2023-01-26T16:33:55;99760.27;;;6.25;100.00
11413;BME280;5762;43.256;26.960;2023-01-26T16:36:25;99746.33;;;6.23;100.00
11413;BME280;5762;43.256;26.960;2023-01-26T16:38:54;99746.84;;;6.32;100.00
11413;BME280;5762;43.256;26.960;2023-01-26T16:41:30;99737.44;;;6.35;100.00
11413;BME280;5762;43.256;26.960;2023-01-26T16:43:59;99727.76;;;6.31;100.00
11413;BME280;5762;43.256;26.960;2023-01-26T16:46:28;99732.86;;;6.35;100.00
11413;BME280;5762;43.256;26.960;2023-01-26T16:48:57;99716.73;;;6.33;100.00
11413;BME280;5762;43.256;26.960;2023-01-26T16:51:30;99720.77;;;6.33;100.00
11413;BME280;5762;43.256;26.960;2023-01-26T16:53:59;99718.89;;;6.31;100.00
11413;BME280;5762;43.256;26.960;2023-01-26T16:56:28;99708.94;;;6.34;100.00
11413;BME280;5762;43.256;26.960;2023-01-26T16:58:57;99714.59;;;6.35;100.00
11413;BME280;5762;43.256;26.960;2023-01-26T17:01:28;99713.52;;;6.38;100.00
11413;BME280;5762;43.256;26.960;2023-01-26T17:03:56;99709.47;;;6.41;100.00
11413;BME280;5762;43.256;26.960;2023-01-26T17:06:25;99708.94;;;6.44;100.00
11413;BME280;5762;43.256;26.960;2023-01-26T17:08:54;99706.78;;;6.49;100.00
11413;BME280;5762;43.256;26.960;2023-01-26T17:11:24;99704.63;;;6.46;100.00
11413;BME280;5762;43.256;26.960;2023-01-26T17:13:53;99697.37;;;6.51;100.00
11413;BME280;5762;43.256;26.960;2023-01-26T17:16:26;99694.68;;;6.51;100.00
11413;BME280;5762;43.256;26.960;2023-01-26T17:19:00;99689.03;;;6.50;100.00
11413;BME280;5762;43.256;26.960;2023-01-26T17:21:29;99681.77;;;6.53;100.00
11413;BME280;5762;43.256;26.960;2023-01-26T17:23:58;99682.80;;;6.60;100.00
11413;BME280;5762;43.256;26.960;2023-01-26T17:26:27;99677.46;;;6.57;100.00
11413;BME280;5762;43.256;26.960;2023-01-26T17:28:56;99677.16;;;6.59;100.00
11413;BME280;5762;43.256;26.960;2023-01-26T17:31:25;99677.73;;;6.58;100.00
11413;BME280;5762;43.256;26.960;2023-01-26T17:33:54;99671.52;;;6.60;100.00
11413;BME280;5762;43.256;26.960;2023-01-26T17:36:23;99666.66;;;6.62;100.00
11413;BME280;5762;43.256;26.960;2023-01-26T17:38:52;99666.98;;;6.58;100.00
11413;BME280;5762;43.256;26.960;2023-01-26T17:41:21;99658.59;;;6.62;100.00
11413;BME280;5762;43.256;26.960;2023-01-26T17:43:49;99652.41;;;6.64;100.00
11413;BME280;5762;43.256;26.960;2023-01-26T17:46:19;99655.09;;;6.64;100.00
11413;BME280;5762;43.256;26.960;2023-01-26T17:48:47;99646.50;;;6.62;100.00
11413;BME280;5762;43.256;26.960;2023-01-26T17:51:17;99656.70;;;6.68;100.00
11413;BME280;5762;43.256;26.960;2023-01-26T17:53:46;99636.27;;;6.64;100.00
11413;BME280;5762;43.256;26.960;2023-01-26T17:56:16;99644.33;;;6.69;100.00
11413;BME280;5762;43.256;26.960;2023-01-26T17:58:49;99648.38;;;6.67;100.00
11413;BME280;5762;43.256;26.960;2023-01-26T18:01:18;99643.24;;;6.73;100.00
11413;BME280;5762;43.256;26.960;2023-01-26T18:03:47;99645.92;;;6.76;100.00
11413;BME280;5762;43.256;26.960;2023-01-26T18:06:16;99643.78;;;6.72;100.00
11413;BME280;5762;43.256;26.960;2023-01-26T18:08:45;99640.28;;;6.75;100.00
11413;BME280;5762;43.256;26.960;2023-01-26T18:11:14;99650.73;;;6.84;100.00
11413;BME280;5762;43.256;26.960;2023-01-26T18:13:42;99651.00;;;6.85;100.00
11413;BME280;5762;43.256;26.960;2023-01-26T18:16:14;99657.98;;;6.88;100.00
11413;BME280;5762;43.256;26.960;2023-01-26T18:18:41;99655.56;;;6.89;100.00
11413;BME280;5762;43.256;26.960;2023-01-26T18:21:11;99650.70;;;6.91;100.00
11413;BME280;5762;43.256;26.960;2023-01-26T18:23:42;99643.73;;;6.88;100.00
11413;BME280;5762;43.256;26.960;2023-01-26T18:26:14;99650.70;;;6.91;100.00
11413;BME280;5762;43.256;26.960;2023-01-26T18:28:42;99639.37;;;6.94;100.00
11413;BME280;5762;43.256;26.960;2023-01-26T18:31:12;99635.59;;;6.95;100.00
11413;BME280;5762;43.256;26.960;2023-01-26T18:33:43;99623.55;;;6.90;100.00
11413;BME280;5762;43.256;26.960;2023-01-26T18:36:12;99624.34;;;6.91;100.00
11413;BME280;5762;43.256;26.960;2023-01-26T18:38:41;99609.50;;;6.96;100.00
11413;BME280;5762;43.256;26.960;2023-01-26T18:41:10;99606.00;;;6.95;100.00
11413;BME280;5762;43.256;26.960;2023-01-26T18:43:39;99614.41;;;6.89;100.00
11413;BME280;5762;43.256;26.960;2023-01-26T18:46:07;99607.15;;;6.87;100.00
11413;BME280;5762;43.256;26.960;2023-01-26T18:48:36;99603.92;;;6.87;100.00
11413;BME280;5762;43.256;26.960;2023-01-26T18:51:05;99603.39;;;6.85;100.00
11413;BME280;5762;43.256;26.960;2023-01-26T18:53:35;99601.27;;;6.80;100.00
11413;BME280;5762;43.256;26.960;2023-01-26T18:56:12;99589.41;;;6.83;100.00
11413;BME280;5762;43.256;26.960;2023-01-26T18:58:37;99599.10;;;6.82;100.00
11413;BME280;5762;43.256;26.960;2023-01-26T19:01:06;99582.14;;;6.84;100.00
11413;BME280;5762;43.256;26.960;2023-01-26T19:03:39;99582.69;;;6.83;100.00
11413;BME280;5762;43.256;26.960;2023-01-26T19:06:08;99574.08;;;6.84;100.00
11413;BME280;5762;43.256;26.960;2023-01-26T19:08:37;99572.20;;;6.82;100.00
11413;BME280;5762;43.256;26.960;2023-01-26T19:11:06;99568.72;;;6.79;100.00
11413;BME280;5762;43.256;26.960;2023-01-26T19:13:35;99562.25;;;6.82;100.00
11413;BME280;5762;43.256;26.960;2023-01-26T19:16:05;99558.22;;;6.82;100.00
11413;BME280;5762;43.256;26.960;2023-01-26T19:18:34;99553.40;;;6.77;100.00
11413;BME280;5762;43.256;26.960;2023-01-26T19:21:03;99556.89;;;6.77;100.00
11413;BME280;5762;43.256;26.960;2023-01-26T19:23:36;99549.89;;;6.79;100.00
11413;BME280;5762;43.256;26.960;2023-01-26T19:26:13;99544.78;;;6.80;100.00
11413;BME280;5762;43.256;26.960;2023-01-26T19:28:41;99536.19;;;6.78;100.00
11413;BME280;5762;43.256;26.960;2023-01-26T19:31:09;99541.53;;;6.83;100.00
11413;BME280;5762;43.256;26.960;2023-01-26T19:33:38;99532.65;;;6.85;100.00
11413;BME280;5762;43.256;26.960;2023-01-26T19:36:07;99518.37;;;6.89;100.00
11413;BME280;5762;43.256;26.960;2023-01-26T19:38:36;99517.27;;;6.93;100.00
11413;BME280;5762;43.256;26.960;2023-01-26T19:41:05;99507.53;;;6.97;100.00
11413;BME280;5762;43.256;26.960;2023-01-26T19:43:34;99508.07;;;6.96;100.00
11413;BME280;5762;43.256;26.960;2023-01-26T19:46:03;99511.56;;;6.97;100.00
11413;BME280;5762;43.256;26.960;2023-01-26T19:48:33;99510.50;;;6.95;100.00
11413;BME280;5762;43.256;26.960;2023-01-26T19:51:05;99507.52;;;6.99;100.00
11413;BME280;5762;43.256;26.960;2023-01-26T19:53:36;99505.09;;;7.00;100.00
11413;BME280;5762;43.256;26.960;2023-01-26T19:56:06;99498.64;;;6.99;100.00
11413;BME280;5762;43.256;26.960;2023-01-26T19:58:35;99485.98;;;6.99;100.00
11413;BME280;5762;43.256;26.960;2023-01-26T20:01:05;99497.28;;;7.01;100.00
11413;BME280;5762;43.256;26.960;2023-01-26T20:03:33;99484.06;;;7.05;100.00
11413;BME280;5762;43.256;26.960;2023-01-26T20:06:03;99486.20;;;7.08;100.00
11413;BME280;5762;43.256;26.960;2023-01-26T20:08:32;99478.93;;;7.09;100.00
11413;BME280;5762;43.256;26.960;2023-01-26T20:11:01;99482.14;;;7.11;100.00
11413;BME280;5762;43.256;26.960;2023-01-26T20:13:31;99472.47;;;7.10;100.00
11413;BME280;5762;43.256;26.960;2023-01-26T20:16:00;99456.84;;;7.12;100.00
11413;BME280;5762;43.256;26.960;2023-01-26T20:18:29;99451.16;;;7.16;100.00
11413;BME280;5762;43.256;26.960;2023-01-26T20:20:58;99457.11;;;7.13;100.00
11413;BME280;5762;43.256;26.960;2023-01-26T20:23:27;99448.77;;;7.12;100.00
11413;BME280;5762;43.256;26.960;2023-01-26T20:26:07;99447.41;;;7.14;100.00
11413;BME280;5762;43.256;26.960;2023-01-26T20:28:36;99451.46;;;7.12;100.00
11413;BME280;5762;43.256;26.960;2023-01-26T20:31:08;99456.32;;;7.10;100.00
11413;BME280;5762;43.256;26.960;2023-01-26T20:33:37;99457.97;;;7.05;100.00
11413;BME280;5762;43.256;26.960;2023-01-26T20:36:14;99464.71;;;7.03;100.00
11413;BME280;5762;43.256;26.960;2023-01-26T20:38:38;99455.03;;;7.02;100.00
11413;BME280;5762;43.256;26.960;2023-01-26T20:41:08;99449.16;;;6.95;100.00
11413;BME280;5762;43.256;26.960;2023-01-26T20:43:37;99450.77;;;6.96;100.00
11413;BME280;5762;43.256;26.960;2023-01-26T20:46:06;99431.96;;;6.93;100.00
11413;BME280;5762;43.256;26.960;2023-01-26T20:48:37;99433.61;;;6.92;100.00
11413;BME280;5762;43.256;26.960;2023-01-26T20:53:39;99407.56;;;6.87;100.00
11413;BME280;5762;43.256;26.960;2023-01-26T20:56:09;99399.51;;;6.85;100.00
11413;BME280;5762;43.256;26.960;2023-01-26T20:58:38;99400.84;;;6.85;100.00
11413;BME280;5762;43.256;26.960;2023-01-26T21:01:13;99384.99;;;6.83;100.00
11413;BME280;5762;43.256;26.960;2023-01-26T21:03:37;99384.19;;;6.83;100.00